sensor_id;sensor_type;location;lat;lon;timestamp;P1;durP1;ratioP1;P2;durP2;ratioP2
74309;SDS011;62722;51.142;17.052;2023-07-08T00:00:42;9.43;;;6.15;;
74309;SDS011;62722;51.142;17.052;2023-07-08T00:03:29;9.43;;;6.07;;
74309;SDS011;62722;51.142;17.052;2023-07-08T00:05:57;8.82;;;5.65;;
74309;SDS011;62722;51.142;17.052;2023-07-08T00:08:25;9.40;;;6.55;;
74309;SDS011;62722;51.142;17.052;2023-07-08T00:10:53;9.48;;;5.95;;
74309;SDS011;62722;51.142;17.052;2023-07-08T00:13:20;11.00;;;5.88;;
74309;SDS011;62722;51.142;17.052;2023-07-08T00:15:48;8.70;;;5.43;;
74309;SDS011;62722;51.142;17.052;2023-07-08T00:18:16;8.70;;;5.40;;
74309;SDS011;62722;51.142;17.052;2023-07-08T00:20:45;6.47;;;5.07;;
74309;SDS011;62722;51.142;17.052;2023-07-08T00:23:14;7.28;;;5.20;;
74309;SDS011;62722;51.142;17.052;2023-07-08T00:25:43;8.38;;;5.35;;
74309;SDS011;62722;51.142;17.052;2023-07-08T00:28:12;8.02;;;5.45;;
74309;SDS011;62722;51.142;17.052;2023-07-08T00:30:42;9.45;;;6.22;;
74309;SDS011;62722;51.142;17.052;2023-07-08T00:33:10;9.23;;;6.10;;
74309;SDS011;62722;51.142;17.052;2023-07-08T00:35:38;7.25;;;5.43;;
74309;SDS011;62722;51.142;17.052;2023-07-08T00:38:11;8.10;;;5.80;;
74309;SDS011;62722;51.142;17.052;2023-07-08T00:40:50;9.10;;;5.78;;
74309;SDS011;62722;51.142;17.052;2023-07-08T00:43:21;8.32;;;6.18;;
74309;SDS011;62722;51.142;17.052;2023-07-08T00:45:52;9.57;;;6.40;;
74309;SDS011;62722;51.142;17.052;2023-07-08T00:48:28;11.32;;;6.70;;
74309;SDS011;62722;51.142;17.052;2023-07-08T00:51:00;8.73;;;5.63;;
74309;SDS011;62722;51.142;17.052;2023-07-08T00:53:28;8.43;;;6.22;;
74309;SDS011;62722;51.142;17.052;2023-07-08T00:56:00;8.55;;;6.07;;
74309;SDS011;62722;51.142;17.052;2023-07-08T00:58:33;8.43;;;6.00;;
74309;SDS011;62722;51.142;17.052;2023-07-08T01:01:05;10.07;;;6.03;;
74309;SDS011;62722;51.142;17.052;2023-07-08T01:03:35;9.07;;;6.97;;
74309;SDS011;62722;51.142;17.052;2023-07-08T01:06:09;9.95;;;6.15;;
74309;SDS011;62722;51.142;17.052;2023-07-08T01:08:36;9.63;;;6.82;;
74309;SDS011;62722;51.142;17.052;2023-07-08T01:11:05;10.40;;;6.78;;
74309;SDS011;62722;51.142;17.052;2023-07-08T01:13:34;12.13;;;7.53;;
74309;SDS011;62722;51.142;17.052;2023-07-08T01:16:06;12.73;;;6.60;;
74309;SDS011;62722;51.142;17.052;2023-07-08T01:18:35;9.50;;;6.78;;
74309;SDS011;62722;51.142;17.052;2023-07-08T01:21:06;8.68;;;6.60;;
74309;SDS011;62722;51.142;17.052;2023-07-08T01:23:56;11.38;;;7.18;;
74309;SDS011;62722;51.142;17.052;2023-07-08T01:26:24;10.10;;;6.70;;
74309;SDS011;62722;51.142;17.052;2023-07-08T01:28:52;10.63;;;7.22;;
74309;SDS011;62722;51.142;17.052;2023-07-08T01:31:21;10.05;;;6.75;;
74309;SDS011;62722;51.142;17.052;2023-07-08T01:33:49;10.25;;;7.03;;
74309;SDS011;62722;51.142;17.052;2023-07-08T01:36:18;10.85;;;7.00;;
74309;SDS011;62722;51.142;17.052;2023-07-08T01:38:45;9.52;;;7.00;;
74309;SDS011;62722;51.142;17.052;2023-07-08T01:41:15;10.52;;;6.88;;
74309;SDS011;62722;51.142;17.052;2023-07-08T01:43:43;9.05;;;6.68;;
74309;SDS011;62722;51.142;17.052;2023-07-08T01:46:11;10.10;;;7.00;;
74309;SDS011;62722;51.142;17.052;2023-07-08T01:48:43;9.60;;;7.50;;
74309;SDS011;62722;51.142;17.052;2023-07-08T01:51:19;11.48;;;7.60;;
74309;SDS011;62722;51.142;17.052;2023-07-08T01:53:47;9.77;;;7.60;;
74309;SDS011;62722;51.142;17.052;2023-07-08T01:56:16;13.32;;;7.70;;
74309;SDS011;62722;51.142;17.052;2023-07-08T01:58:43;10.05;;;7.57;;
74309;SDS011;62722;51.142;17.052;2023-07-08T02:01:11;13.77;;;7.90;;
74309;SDS011;62722;51.142;17.052;2023-07-08T02:03:38;11.73;;;8.35;;
74309;SDS011;62722;51.142;17.052;2023-07-08T02:06:06;12.02;;;7.38;;
74309;SDS011;62722;51.142;17.052;2023-07-08T02:08:34;11.70;;;8.68;;
74309;SDS011;62722;51.142;17.052;2023-07-08T02:11:02;12.35;;;8.65;;
74309;SDS011;62722;51.142;17.052;2023-07-08T02:13:30;12.48;;;8.85;;
74309;SDS011;62722;51.142;17.052;2023-07-08T02:15:58;12.20;;;8.02;;
74309;SDS011;62722;51.142;17.052;2023-07-08T02:18:25;12.63;;;8.77;;
74309;SDS011;62722;51.142;17.052;2023-07-08T02:20:53;13.18;;;8.60;;
74309;SDS011;62722;51.142;17.052;2023-07-08T02:23:21;15.00;;;9.73;;
74309;SDS011;62722;51.142;17.052;2023-07-08T02:25:52;12.15;;;8.88;;
74309;SDS011;62722;51.142;17.052;2023-07-08T02:28:20;11.98;;;8.48;;
74309;SDS011;62722;51.142;17.052;2023-07-08T02:30:49;12.35;;;8.65;;
74309;SDS011;62722;51.142;17.052;2023-07-08T02:33:16;15.23;;;9.13;;
74309;SDS011;62722;51.142;17.052;2023-07-08T02:35:44;14.43;;;8.75;;
74309;SDS011;62722;51.142;17.052;2023-07-08T02:38:11;12.07;;;8.98;;
74309;SDS011;62722;51.142;17.052;2023-07-08T02:40:39;13.93;;;8.85;;
74309;SDS011;62722;51.142;17.052;2023-07-08T02:43:06;14.27;;;8.60;;
74309;SDS011;62722;51.142;17.052;2023-07-08T02:45:34;11.23;;;8.52;;
74309;SDS011;62722;51.142;17.052;2023-07-08T02:48:04;12.40;;;8.45;;
74309;SDS011;62722;51.142;17.052;2023-07-08T02:50:31;12.70;;;8.25;;
74309;SDS011;62722;51.142;17.052;2023-07-08T02:52:59;10.38;;;8.10;;
74309;SDS011;62722;51.142;17.052;2023-07-08T02:55:26;10.10;;;7.88;;
74309;SDS011;62722;51.142;17.052;2023-07-08T02:57:53;11.43;;;7.72;;
74309;SDS011;62722;51.142;17.052;2023-07-08T03:00:21;12.15;;;7.68;;
74309;SDS011;62722;51.142;17.052;2023-07-08T03:02:48;11.93;;;7.78;;
74309;SDS011;62722;51.142;17.052;2023-07-08T03:05:17;11.77;;;8.30;;
74309;SDS011;62722;51.142;17.052;2023-07-08T03:07:44;10.77;;;8.07;;
74309;SDS011;62722;51.142;17.052;2023-07-08T03:10:12;11.40;;;7.97;;
74309;SDS011;62722;51.142;17.052;2023-07-08T03:12:39;11.45;;;8.27;;
74309;SDS011;62722;51.142;17.052;2023-07-08T03:15:07;9.60;;;7.28;;
74309;SDS011;62722;51.142;17.052;2023-07-08T03:17:34;10.85;;;8.50;;
74309;SDS011;62722;51.142;17.052;2023-07-08T03:20:02;11.98;;;8.60;;
74309;SDS011;62722;51.142;17.052;2023-07-08T03:22:34;11.95;;;8.30;;
74309;SDS011;62722;51.142;17.052;2023-07-08T03:25:01;9.90;;;7.35;;
74309;SDS011;62722;51.142;17.052;2023-07-08T03:27:29;12.23;;;8.60;;
74309;SDS011;62722;51.142;17.052;2023-07-08T03:29:56;12.40;;;8.23;;
74309;SDS011;62722;51.142;17.052;2023-07-08T03:32:24;12.32;;;8.48;;
74309;SDS011;62722;51.142;17.052;2023-07-08T03:34:52;11.90;;;8.18;;
74309;SDS011;62722;51.142;17.052;2023-07-08T03:37:21;13.20;;;8.05;;
74309;SDS011;62722;51.142;17.052;2023-07-08T03:39:50;10.88;;;8.02;;
74309;SDS011;62722;51.142;17.052;2023-07-08T03:42:17;13.10;;;8.60;;
74309;SDS011;62722;51.142;17.052;2023-07-08T03:44:45;10.95;;;8.35;;
74309;SDS011;62722;51.142;17.052;2023-07-08T03:47:12;12.68;;;8.32;;
74309;SDS011;62722;51.142;17.052;2023-07-08T03:49:39;12.35;;;9.13;;
74309;SDS011;62722;51.142;17.052;2023-07-08T03:52:07;13.75;;;8.88;;
74309;SDS011;62722;51.142;17.052;2023-07-08T03:54:44;12.15;;;9.15;;
74309;SDS011;62722;51.142;17.052;2023-07-08T03:57:13;12.00;;;9.13;;
74309;SDS011;62722;51.142;17.052;2023-07-08T03:59:41;15.02;;;9.00;;
74309;SDS011;62722;51.142;17.052;2023-07-08T04:02:10;12.15;;;8.45;;
74309;SDS011;62722;51.142;17.052;2023-07-08T04:04:38;11.82;;;7.97;;
74309;SDS011;62722;51.142;17.052;2023-07-08T04:07:05;11.38;;;8.20;;
74309;SDS011;62722;51.142;17.052;2023-07-08T04:09:34;14.10;;;8.48;;
74309;SDS011;62722;51.142;17.052;2023-07-08T04:12:01;11.15;;;8.40;;
74309;SDS011;62722;51.142;17.052;2023-07-08T04:14:32;13.80;;;8.52;;
74309;SDS011;62722;51.142;17.052;2023-07-08T04:16:59;12.50;;;8.75;;
74309;SDS011;62722;51.142;17.052;2023-07-08T04:19:27;10.77;;;7.82;;
74309;SDS011;62722;51.142;17.052;2023-07-08T04:21:54;11.40;;;8.30;;
74309;SDS011;62722;51.142;17.052;2023-07-08T04:24:21;11.82;;;8.30;;
74309;SDS011;62722;51.142;17.052;2023-07-08T04:26:49;12.90;;;8.15;;
74309;SDS011;62722;51.142;17.052;2023-07-08T04:29:18;11.52;;;8.25;;
74309;SDS011;62722;51.142;17.052;2023-07-08T04:31:48;12.25;;;7.93;;
74309;SDS011;62722;51.142;17.052;2023-07-08T04:34:16;11.88;;;9.50;;
74309;SDS011;62722;51.142;17.052;2023-07-08T04:36:43;13.02;;;7.50;;
74309;SDS011;62722;51.142;17.052;2023-07-08T04:39:11;12.13;;;8.02;;
74309;SDS011;62722;51.142;17.052;2023-07-08T04:41:39;9.82;;;7.60;;
74309;SDS011;62722;51.142;17.052;2023-07-08T04:44:09;13.65;;;7.95;;
74309;SDS011;62722;51.142;17.052;2023-07-08T04:46:38;12.18;;;7.50;;
74309;SDS011;62722;51.142;17.052;2023-07-08T04:49:10;9.20;;;7.45;;
74309;SDS011;62722;51.142;17.052;2023-07-08T04:51:39;9.43;;;7.50;;
74309;SDS011;62722;51.142;17.052;2023-07-08T04:54:07;9.63;;;7.40;;
74309;SDS011;62722;51.142;17.052;2023-07-08T04:56:36;11.02;;;7.38;;
74309;SDS011;62722;51.142;17.052;2023-07-08T04:59:05;9.85;;;7.15;;
74309;SDS011;62722;51.142;17.052;2023-07-08T05:01:32;12.60;;;7.53;;
74309;SDS011;62722;51.142;17.052;2023-07-08T05:04:00;12.73;;;8.00;;
74309;SDS011;62722;51.142;17.052;2023-07-08T05:06:28;11.63;;;7.65;;
74309;SDS011;62722;51.142;17.052;2023-07-08T05:08:57;10.40;;;6.85;;
74309;SDS011;62722;51.142;17.052;2023-07-08T05:11:25;10.85;;;6.82;;
74309;SDS011;62722;51.142;17.052;2023-07-08T05:13:53;12.13;;;8.38;;
74309;SDS011;62722;51.142;17.052;2023-07-08T05:16:20;10.65;;;8.43;;
74309;SDS011;62722;51.142;17.052;2023-07-08T05:18:47;9.63;;;7.20;;
74309;SDS011;62722;51.142;17.052;2023-07-08T05:21:15;9.45;;;7.03;;
74309;SDS011;62722;51.142;17.052;2023-07-08T05:23:44;10.57;;;7.72;;
74309;SDS011;62722;51.142;17.052;2023-07-08T05:26:12;11.05;;;8.13;;
74309;SDS011;62722;51.142;17.052;2023-07-08T05:28:39;10.10;;;7.35;;
74309;SDS011;62722;51.142;17.052;2023-07-08T05:31:06;9.15;;;6.97;;
74309;SDS011;62722;51.142;17.052;2023-07-08T05:33:34;11.55;;;7.95;;
74309;SDS011;62722;51.142;17.052;2023-07-08T05:36:01;10.43;;;7.50;;
74309;SDS011;62722;51.142;17.052;2023-07-08T05:38:29;11.00;;;7.65;;
74309;SDS011;62722;51.142;17.052;2023-07-08T05:40:58;9.13;;;7.50;;
74309;SDS011;62722;51.142;17.052;2023-07-08T05:43:25;9.05;;;7.45;;
74309;SDS011;62722;51.142;17.052;2023-07-08T05:45:56;12.18;;;8.07;;
74309;SDS011;62722;51.142;17.052;2023-07-08T05:48:25;10.45;;;7.95;;
74309;SDS011;62722;51.142;17.052;2023-07-08T05:50:52;11.43;;;7.55;;
74309;SDS011;62722;51.142;17.052;2023-07-08T05:53:20;8.85;;;6.93;;
74309;SDS011;62722;51.142;17.052;2023-07-08T05:55:47;8.30;;;6.50;;
74309;SDS011;62722;51.142;17.052;2023-07-08T05:58:17;10.57;;;7.38;;
74309;SDS011;62722;51.142;17.052;2023-07-08T06:00:44;8.13;;;6.07;;
74309;SDS011;62722;51.142;17.052;2023-07-08T06:03:12;9.60;;;6.88;;
74309;SDS011;62722;51.142;17.052;2023-07-08T06:05:39;9.63;;;7.03;;
74309;SDS011;62722;51.142;17.052;2023-07-08T06:08:06;10.45;;;7.40;;
74309;SDS011;62722;51.142;17.052;2023-07-08T06:10:34;11.00;;;7.10;;
74309;SDS011;62722;51.142;17.052;2023-07-08T06:13:01;10.02;;;6.55;;
74309;SDS011;62722;51.142;17.052;2023-07-08T06:15:30;8.32;;;6.20;;
74309;SDS011;62722;51.142;17.052;2023-07-08T06:17:57;8.10;;;5.90;;
74309;SDS011;62722;51.142;17.052;2023-07-08T06:20:27;8.07;;;6.30;;
74309;SDS011;62722;51.142;17.052;2023-07-08T06:22:55;9.50;;;5.50;;
74309;SDS011;62722;51.142;17.052;2023-07-08T06:25:23;8.77;;;6.07;;
74309;SDS011;62722;51.142;17.052;2023-07-08T06:27:50;7.75;;;6.47;;
74309;SDS011;62722;51.142;17.052;2023-07-08T06:30:17;8.02;;;6.00;;
74309;SDS011;62722;51.142;17.052;2023-07-08T06:32:46;9.55;;;6.38;;
74309;SDS011;62722;51.142;17.052;2023-07-08T06:35:14;7.57;;;5.75;;
74309;SDS011;62722;51.142;17.052;2023-07-08T06:37:41;6.22;;;4.82;;
74309;SDS011;62722;51.142;17.052;2023-07-08T06:40:08;7.57;;;4.90;;
74309;SDS011;62722;51.142;17.052;2023-07-08T06:42:37;8.57;;;4.55;;
74309;SDS011;62722;51.142;17.052;2023-07-08T06:45:04;6.50;;;4.53;;
74309;SDS011;62722;51.142;17.052;2023-07-08T06:47:32;6.45;;;4.22;;
74309;SDS011;62722;51.142;17.052;2023-07-08T06:50:01;7.68;;;4.50;;
74309;SDS011;62722;51.142;17.052;2023-07-08T06:52:29;7.28;;;4.30;;
74309;SDS011;62722;51.142;17.052;2023-07-08T06:54:59;6.63;;;4.30;;
74309;SDS011;62722;51.142;17.052;2023-07-08T06:57:27;7.40;;;4.10;;
74309;SDS011;62722;51.142;17.052;2023-07-08T06:59:55;6.40;;;4.38;;
74309;SDS011;62722;51.142;17.052;2023-07-08T07:02:22;7.65;;;3.97;;
74309;SDS011;62722;51.142;17.052;2023-07-08T07:04:49;6.18;;;4.03;;
74309;SDS011;62722;51.142;17.052;2023-07-08T07:07:18;5.78;;;3.75;;
74309;SDS011;62722;51.142;17.052;2023-07-08T07:09:46;4.63;;;3.83;;
74309;SDS011;62722;51.142;17.052;2023-07-08T07:12:13;6.03;;;4.22;;
74309;SDS011;62722;51.142;17.052;2023-07-08T07:14:40;6.38;;;4.00;;
74309;SDS011;62722;51.142;17.052;2023-07-08T07:17:08;6.32;;;3.42;;
74309;SDS011;62722;51.142;17.052;2023-07-08T07:19:35;5.57;;;3.53;;
74309;SDS011;62722;51.142;17.052;2023-07-08T07:22:03;5.25;;;3.65;;
74309;SDS011;62722;51.142;17.052;2023-07-08T07:24:32;6.88;;;4.03;;
74309;SDS011;62722;51.142;17.052;2023-07-08T07:26:59;5.60;;;3.67;;
74309;SDS011;62722;51.142;17.052;2023-07-08T07:29:26;6.28;;;3.95;;
74309;SDS011;62722;51.142;17.052;2023-07-08T07:31:54;7.47;;;4.15;;
74309;SDS011;62722;51.142;17.052;2023-07-08T07:34:21;6.20;;;3.85;;
74309;SDS011;62722;51.142;17.052;2023-07-08T07:36:48;4.65;;;3.60;;
74309;SDS011;62722;51.142;17.052;2023-07-08T07:39:16;7.40;;;3.75;;
74309;SDS011;62722;51.142;17.052;2023-07-08T07:41:45;4.65;;;3.30;;
74309;SDS011;62722;51.142;17.052;2023-07-08T07:44:12;5.25;;;3.42;;
74309;SDS011;62722;51.142;17.052;2023-07-08T07:46:39;4.10;;;3.33;;
74309;SDS011;62722;51.142;17.052;2023-07-08T07:49:06;4.20;;;2.75;;
74309;SDS011;62722;51.142;17.052;2023-07-08T07:51:34;5.40;;;3.20;;
74309;SDS011;62722;51.142;17.052;2023-07-08T07:54:01;5.60;;;3.53;;
74309;SDS011;62722;51.142;17.052;2023-07-08T07:56:29;4.20;;;3.17;;
74309;SDS011;62722;51.142;17.052;2023-07-08T07:58:58;5.03;;;3.05;;
74309;SDS011;62722;51.142;17.052;2023-07-08T08:01:26;4.95;;;3.35;;
74309;SDS011;62722;51.142;17.052;2023-07-08T08:03:53;4.35;;;3.10;;
74309;SDS011;62722;51.142;17.052;2023-07-08T08:06:21;4.97;;;3.13;;
74309;SDS011;62722;51.142;17.052;2023-07-08T08:08:48;5.13;;;2.88;;
74309;SDS011;62722;51.142;17.052;2023-07-08T08:11:16;5.43;;;2.85;;
74309;SDS011;62722;51.142;17.052;2023-07-08T08:13:43;12.48;;;3.42;;
74309;SDS011;62722;51.142;17.052;2023-07-08T08:16:12;4.22;;;2.85;;
74309;SDS011;62722;51.142;17.052;2023-07-08T08:18:39;3.45;;;2.70;;
74309;SDS011;62722;51.142;17.052;2023-07-08T08:21:07;4.22;;;2.83;;
74309;SDS011;62722;51.142;17.052;2023-07-08T08:23:34;6.65;;;3.17;;
74309;SDS011;62722;51.142;17.052;2023-07-08T08:26:02;3.60;;;2.70;;
74309;SDS011;62722;51.142;17.052;2023-07-08T08:28:30;4.38;;;2.90;;
74309;SDS011;62722;51.142;17.052;2023-07-08T08:30:58;3.65;;;2.42;;
74309;SDS011;62722;51.142;17.052;2023-07-08T08:33:27;7.82;;;2.95;;
74309;SDS011;62722;51.142;17.052;2023-07-08T08:35:56;5.60;;;2.65;;
74309;SDS011;62722;51.142;17.052;2023-07-08T08:38:23;7.35;;;2.72;;
74309;SDS011;62722;51.142;17.052;2023-07-08T08:40:50;4.75;;;2.90;;
74309;SDS011;62722;51.142;17.052;2023-07-08T08:43:18;3.33;;;2.67;;
74309;SDS011;62722;51.142;17.052;2023-07-08T08:45:50;5.25;;;2.95;;
74309;SDS011;62722;51.142;17.052;2023-07-08T08:48:24;4.13;;;2.97;;
74309;SDS011;62722;51.142;17.052;2023-07-08T08:50:56;4.07;;;2.97;;
74309;SDS011;62722;51.142;17.052;2023-07-08T08:53:27;6.38;;;2.65;;
74309;SDS011;62722;51.142;17.052;2023-07-08T08:55:56;4.30;;;3.05;;
74309;SDS011;62722;51.142;17.052;2023-07-08T08:58:32;4.82;;;2.70;;
74309;SDS011;62722;51.142;17.052;2023-07-08T09:01:08;3.38;;;2.70;;
74309;SDS011;62722;51.142;17.052;2023-07-08T09:03:45;4.03;;;3.05;;
74309;SDS011;62722;51.142;17.052;2023-07-08T09:06:16;4.70;;;2.75;;
74309;SDS011;62722;51.142;17.052;2023-07-08T09:08:46;4.80;;;3.17;;
74309;SDS011;62722;51.142;17.052;2023-07-08T09:11:19;5.20;;;2.70;;
74309;SDS011;62722;51.142;17.052;2023-07-08T09:13:54;3.58;;;2.80;;
74309;SDS011;62722;51.142;17.052;2023-07-08T09:16:25;4.38;;;2.90;;
74309;SDS011;62722;51.142;17.052;2023-07-08T09:19:00;3.83;;;2.42;;
74309;SDS011;62722;51.142;17.052;2023-07-08T09:21:34;4.32;;;3.03;;
74309;SDS011;62722;51.142;17.052;2023-07-08T09:24:08;3.95;;;2.75;;
74309;SDS011;62722;51.142;17.052;2023-07-08T09:26:43;5.28;;;2.90;;
74309;SDS011;62722;51.142;17.052;2023-07-08T09:29:12;4.50;;;2.60;;
74309;SDS011;62722;51.142;17.052;2023-07-08T09:31:39;5.72;;;2.70;;
74309;SDS011;62722;51.142;17.052;2023-07-08T09:34:10;4.70;;;2.63;;
74309;SDS011;62722;51.142;17.052;2023-07-08T09:39:09;3.97;;;2.58;;
74309;SDS011;62722;51.142;17.052;2023-07-08T09:41:37;4.05;;;2.30;;
74309;SDS011;62722;51.142;17.052;2023-07-08T09:44:08;5.38;;;2.70;;
74309;SDS011;62722;51.142;17.052;2023-07-08T09:46:41;5.68;;;2.42;;
74309;SDS011;62722;51.142;17.052;2023-07-08T09:49:12;3.50;;;2.50;;
74309;SDS011;62722;51.142;17.052;2023-07-08T09:51:44;5.20;;;2.70;;
74309;SDS011;62722;51.142;17.052;2023-07-08T09:54:12;4.47;;;2.55;;
74309;SDS011;62722;51.142;17.052;2023-07-08T09:56:40;3.95;;;2.90;;
74309;SDS011;62722;51.142;17.052;2023-07-08T09:59:13;3.80;;;2.45;;
74309;SDS011;62722;51.142;17.052;2023-07-08T10:01:42;3.38;;;2.70;;
74309;SDS011;62722;51.142;17.052;2023-07-08T10:04:11;4.63;;;3.00;;
74309;SDS011;62722;51.142;17.052;2023-07-08T10:06:38;4.47;;;3.00;;
74309;SDS011;62722;51.142;17.052;2023-07-08T10:09:12;5.60;;;2.78;;
74309;SDS011;62722;51.142;17.052;2023-07-08T10:11:46;4.18;;;3.05;;
74309;SDS011;62722;51.142;17.052;2023-07-08T10:14:18;3.63;;;2.55;;
74309;SDS011;62722;51.142;17.052;2023-07-08T10:16:51;6.95;;;3.03;;
74309;SDS011;62722;51.142;17.052;2023-07-08T10:19:20;3.50;;;2.70;;
74309;SDS011;62722;51.142;17.052;2023-07-08T10:21:51;5.15;;;2.95;;
74309;SDS011;62722;51.142;17.052;2023-07-08T10:24:30;4.97;;;2.80;;
74309;SDS011;62722;51.142;17.052;2023-07-08T10:27:15;4.07;;;2.85;;
74309;SDS011;62722;51.142;17.052;2023-07-08T10:29:52;5.85;;;2.90;;
74309;SDS011;62722;51.142;17.052;2023-07-08T10:32:28;4.80;;;2.90;;
74309;SDS011;62722;51.142;17.052;2023-07-08T10:35:08;5.47;;;2.85;;
74309;SDS011;62722;51.142;17.052;2023-07-08T10:37:46;3.83;;;2.67;;
74309;SDS011;62722;51.142;17.052;2023-07-08T10:40:28;3.70;;;2.60;;
74309;SDS011;62722;51.142;17.052;2023-07-08T10:43:07;4.05;;;2.70;;
74309;SDS011;62722;51.142;17.052;2023-07-08T10:45:45;3.30;;;2.50;;
74309;SDS011;62722;51.142;17.052;2023-07-08T10:48:23;4.68;;;2.85;;
74309;SDS011;62722;51.142;17.052;2023-07-08T10:51:16;4.25;;;2.78;;
74309;SDS011;62722;51.142;17.052;2023-07-08T10:53:57;4.03;;;2.65;;
74309;SDS011;62722;51.142;17.052;2023-07-08T10:56:36;4.35;;;2.70;;
74309;SDS011;62722;51.142;17.052;2023-07-08T10:59:15;4.65;;;2.60;;
74309;SDS011;62722;51.142;17.052;2023-07-08T11:01:57;5.28;;;2.90;;
74309;SDS011;62722;51.142;17.052;2023-07-08T11:04:40;4.10;;;2.80;;
74309;SDS011;62722;51.142;17.052;2023-07-08T11:07:19;2.97;;;2.30;;
74309;SDS011;62722;51.142;17.052;2023-07-08T11:09:56;6.13;;;3.17;;
74309;SDS011;62722;51.142;17.052;2023-07-08T11:12:29;5.18;;;2.70;;
74309;SDS011;62722;51.142;17.052;2023-07-08T11:15:05;3.75;;;2.63;;
74309;SDS011;62722;51.142;17.052;2023-07-08T11:22:43;4.43;;;2.88;;
74309;SDS011;62722;51.142;17.052;2023-07-08T11:25:16;4.25;;;2.70;;
74309;SDS011;62722;51.142;17.052;2023-07-08T11:27:45;4.13;;;2.63;;
74309;SDS011;62722;51.142;17.052;2023-07-08T11:30:16;6.30;;;2.88;;
74309;SDS011;62722;51.142;17.052;2023-07-08T11:32:53;3.78;;;2.85;;
74309;SDS011;62722;51.142;17.052;2023-07-08T11:35:32;4.55;;;2.90;;
74309;SDS011;62722;51.142;17.052;2023-07-08T11:38:06;4.07;;;2.78;;
74309;SDS011;62722;51.142;17.052;2023-07-08T11:40:51;4.03;;;2.63;;
74309;SDS011;62722;51.142;17.052;2023-07-08T11:43:20;4.50;;;2.70;;
74309;SDS011;62722;51.142;17.052;2023-07-08T11:45:50;3.78;;;2.67;;
74309;SDS011;62722;51.142;17.052;2023-07-08T11:48:22;3.90;;;3.05;;
74309;SDS011;62722;51.142;17.052;2023-07-08T11:50:54;3.92;;;2.88;;
74309;SDS011;62722;51.142;17.052;2023-07-08T11:53:34;4.28;;;2.78;;
74309;SDS011;62722;51.142;17.052;2023-07-08T11:56:04;4.82;;;3.40;;
74309;SDS011;62722;51.142;17.052;2023-07-08T11:58:50;4.28;;;3.10;;
74309;SDS011;62722;51.142;17.052;2023-07-08T12:01:37;3.58;;;2.50;;
74309;SDS011;62722;51.142;17.052;2023-07-08T12:04:16;5.03;;;2.63;;
74309;SDS011;62722;51.142;17.052;2023-07-08T12:06:53;5.72;;;3.22;;
74309;SDS011;62722;51.142;17.052;2023-07-08T12:09:35;3.70;;;2.90;;
74309;SDS011;62722;51.142;17.052;2023-07-08T12:12:06;4.03;;;2.90;;
74309;SDS011;62722;51.142;17.052;2023-07-08T12:14:41;5.50;;;2.70;;
74309;SDS011;62722;51.142;17.052;2023-07-08T12:17:10;8.30;;;3.03;;
74309;SDS011;62722;51.142;17.052;2023-07-08T12:19:38;5.82;;;3.30;;
74309;SDS011;62722;51.142;17.052;2023-07-08T12:22:07;4.65;;;2.97;;
74309;SDS011;62722;51.142;17.052;2023-07-08T12:24:36;4.30;;;3.10;;
74309;SDS011;62722;51.142;17.052;2023-07-08T12:27:04;4.72;;;3.20;;
74309;SDS011;62722;51.142;17.052;2023-07-08T12:29:32;3.47;;;2.70;;
74309;SDS011;62722;51.142;17.052;2023-07-08T12:32:00;4.03;;;2.92;;
74309;SDS011;62722;51.142;17.052;2023-07-08T12:34:27;5.75;;;2.70;;
74309;SDS011;62722;51.142;17.052;2023-07-08T12:36:55;2.97;;;2.60;;
74309;SDS011;62722;51.142;17.052;2023-07-08T12:39:23;4.32;;;2.63;;
74309;SDS011;62722;51.142;17.052;2023-07-08T12:41:52;3.90;;;2.67;;
74309;SDS011;62722;51.142;17.052;2023-07-08T12:44:20;5.35;;;3.33;;
74309;SDS011;62722;51.142;17.052;2023-07-08T12:46:52;4.15;;;2.58;;
74309;SDS011;62722;51.142;17.052;2023-07-08T12:49:20;3.50;;;2.90;;
74309;SDS011;62722;51.142;17.052;2023-07-08T12:51:52;3.97;;;3.05;;
74309;SDS011;62722;51.142;17.052;2023-07-08T12:54:19;4.88;;;3.05;;
74309;SDS011;62722;51.142;17.052;2023-07-08T12:56:47;4.07;;;3.03;;
74309;SDS011;62722;51.142;17.052;2023-07-08T12:59:18;4.07;;;3.30;;
74309;SDS011;62722;51.142;17.052;2023-07-08T13:01:48;4.90;;;2.85;;
74309;SDS011;62722;51.142;17.052;2023-07-08T13:04:17;4.50;;;3.00;;
74309;SDS011;62722;51.142;17.052;2023-07-08T13:06:45;3.80;;;2.80;;
74309;SDS011;62722;51.142;17.052;2023-07-08T13:09:21;4.80;;;2.72;;
74309;SDS011;62722;51.142;17.052;2023-07-08T13:11:57;3.40;;;3.10;;
74309;SDS011;62722;51.142;17.052;2023-07-08T13:14:30;4.03;;;3.40;;
74309;SDS011;62722;51.142;17.052;2023-07-08T13:16:58;4.03;;;2.72;;
74309;SDS011;62722;51.142;17.052;2023-07-08T13:19:26;3.10;;;2.65;;
74309;SDS011;62722;51.142;17.052;2023-07-08T13:21:54;3.95;;;2.90;;
74309;SDS011;62722;51.142;17.052;2023-07-08T13:24:22;4.20;;;2.92;;
74309;SDS011;62722;51.142;17.052;2023-07-08T13:26:49;5.65;;;3.15;;
74309;SDS011;62722;51.142;17.052;2023-07-08T13:29:17;4.47;;;2.83;;
74309;SDS011;62722;51.142;17.052;2023-07-08T13:34:16;4.07;;;2.85;;
74309;SDS011;62722;51.142;17.052;2023-07-08T13:36:48;3.60;;;3.05;;
74309;SDS011;62722;51.142;17.052;2023-07-08T13:39:19;5.10;;;3.10;;
74309;SDS011;62722;51.142;17.052;2023-07-08T13:41:50;4.70;;;2.75;;
74309;SDS011;62722;51.142;17.052;2023-07-08T13:44:18;3.80;;;2.90;;
74309;SDS011;62722;51.142;17.052;2023-07-08T13:46:49;3.92;;;2.85;;
74309;SDS011;62722;51.142;17.052;2023-07-08T13:49:22;4.82;;;2.92;;
74309;SDS011;62722;51.142;17.052;2023-07-08T13:52:04;4.85;;;3.22;;
74309;SDS011;62722;51.142;17.052;2023-07-08T13:54:34;4.65;;;3.10;;
74309;SDS011;62722;51.142;17.052;2023-07-08T13:57:09;4.93;;;2.97;;
74309;SDS011;62722;51.142;17.052;2023-07-08T13:59:37;3.20;;;2.75;;
74309;SDS011;62722;51.142;17.052;2023-07-08T14:02:13;3.72;;;2.67;;
74309;SDS011;62722;51.142;17.052;2023-07-08T14:04:43;5.35;;;3.00;;
74309;SDS011;62722;51.142;17.052;2023-07-08T14:07:13;5.40;;;3.08;;
74309;SDS011;62722;51.142;17.052;2023-07-08T14:09:45;3.50;;;2.90;;
74309;SDS011;62722;51.142;17.052;2023-07-08T14:12:13;4.55;;;3.10;;
74309;SDS011;62722;51.142;17.052;2023-07-08T14:14:40;4.18;;;2.80;;
74309;SDS011;62722;51.142;17.052;2023-07-08T14:17:10;4.05;;;2.97;;
74309;SDS011;62722;51.142;17.052;2023-07-08T14:19:38;4.05;;;2.90;;
74309;SDS011;62722;51.142;17.052;2023-07-08T14:22:20;3.55;;;2.90;;
74309;SDS011;62722;51.142;17.052;2023-07-08T14:27:17;4.00;;;2.80;;
74309;SDS011;62722;51.142;17.052;2023-07-08T14:33:17;4.13;;;2.47;;
74309;SDS011;62722;51.142;17.052;2023-07-08T14:35:45;5.45;;;3.00;;
74309;SDS011;62722;51.142;17.052;2023-07-08T14:38:13;4.57;;;2.83;;
74309;SDS011;62722;51.142;17.052;2023-07-08T14:40:41;3.97;;;3.00;;
74309;SDS011;62722;51.142;17.052;2023-07-08T14:43:11;4.95;;;3.30;;
74309;SDS011;62722;51.142;17.052;2023-07-08T14:45:44;4.13;;;3.20;;
74309;SDS011;62722;51.142;17.052;2023-07-08T14:48:14;4.20;;;2.72;;
74309;SDS011;62722;51.142;17.052;2023-07-08T14:50:43;4.43;;;3.17;;
74309;SDS011;62722;51.142;17.052;2023-07-08T14:53:12;5.80;;;2.90;;
74309;SDS011;62722;51.142;17.052;2023-07-08T14:55:40;3.85;;;3.00;;
74309;SDS011;62722;51.142;17.052;2023-07-08T14:58:09;4.05;;;2.67;;
74309;SDS011;62722;51.142;17.052;2023-07-08T15:00:46;4.90;;;2.97;;
74309;SDS011;62722;51.142;17.052;2023-07-08T15:03:14;4.63;;;2.90;;